aviador You're here:

OTBD Decoded Metar

DOHA in QATAR
Report Time2017-08-18 16:00:00
UTC Time2017-08-18 16:30:07
Flight Rules vfr VFR
Wind080° at 04 kt
W.Decomp.*RWY 15: 1.2 kt HW 3.8 kt LCW
W.Rank080° ranks 12
Current wind is below 080° avg. (6.5)
Visibility9999 m
Phenomena:N/A
Clouds:N/A
Expected CloudBase > 3,200 ft AGL from Temp-Dew spread
CeilingNone
Temp36°C (ISA +21)
Dew Point28°C (63% RH)
Heat Index49.8°C
QNH0999 hPa
Density Alt3,383 ft
Elevation33 ft
Report Wrong Elevation
Raw Report
METAR OTBD 181600Z 08004KT CAVOK 36/28 Q0999 NOSIG=

Extra information for OTBD:More info

Metar Taf Metar & Taf Last 4 Metars F.Rules Stats Wind Profile Meteogram Temp Stats Airport Information Weather charts Add Link Nearby VenuesMetar ALERT Operation Metar Decoded Social comments